sensor_id;sensor_type;location;lat;lon;timestamp;pressure;altitude;pressure_sealevel;temperature;humidity
86224;BME280;76887;48.558;12.170;2024-02-28T00:02:02;97041.13;;;5.33;73.30
86224;BME280;76887;48.558;12.170;2024-02-28T00:04:28;97048.34;;;5.28;73.00
86224;BME280;76887;48.558;12.170;2024-02-28T00:06:55;97046.00;;;5.24;73.59
86224;BME280;76887;48.558;12.170;2024-02-28T00:09:21;97044.47;;;5.20;73.88
86224;BME280;76887;48.558;12.170;2024-02-28T00:11:48;97058.50;;;5.17;73.48
86224;BME280;76887;48.558;12.170;2024-02-28T00:14:15;97057.00;;;5.13;73.37
86224;BME280;76887;48.558;12.170;2024-02-28T00:16:42;97051.00;;;5.11;74.09
86224;BME280;76887;48.558;12.170;2024-02-28T00:19:12;97049.31;;;5.10;74.25
86224;BME280;76887;48.558;12.170;2024-02-28T00:21:40;97050.41;;;5.06;73.25
86224;BME280;76887;48.558;12.170;2024-02-28T00:24:07;97048.88;;;5.02;73.85
86224;BME280;76887;48.558;12.170;2024-02-28T00:26:34;97041.47;;;4.94;73.81
86224;BME280;76887;48.558;12.170;2024-02-28T00:29:00;97047.69;;;4.92;73.93
86224;BME280;76887;48.558;12.170;2024-02-28T00:31:27;97042.81;;;4.85;73.73
86224;BME280;76887;48.558;12.170;2024-02-28T00:33:53;97046.31;;;4.84;74.33
86224;BME280;76887;48.558;12.170;2024-02-28T00:38:33;97053.06;;;4.89;73.79
86224;BME280;76887;48.558;12.170;2024-02-28T00:40:59;97058.28;;;4.89;74.64
86224;BME280;76887;48.558;12.170;2024-02-28T00:43:26;97054.91;;;4.87;74.29
86224;BME280;76887;48.558;12.170;2024-02-28T00:45:52;97055.59;;;4.90;73.85
86224;BME280;76887;48.558;12.170;2024-02-28T00:48:19;97061.66;;;4.91;73.55
86224;BME280;76887;48.558;12.170;2024-02-28T00:50:45;97056.44;;;4.91;74.31
86224;BME280;76887;48.558;12.170;2024-02-28T00:55:26;97055.59;;;4.90;73.77
86224;BME280;76887;48.558;12.170;2024-02-28T00:57:52;97068.53;;;4.92;73.81
86224;BME280;76887;48.558;12.170;2024-02-28T01:00:19;97072.06;;;4.91;74.22
86224;BME280;76887;48.558;12.170;2024-02-28T01:02:45;97073.09;;;4.88;74.36
86224;BME280;76887;48.558;12.170;2024-02-28T01:05:12;97076.75;;;4.84;74.48
86224;BME280;76887;48.558;12.170;2024-02-28T01:07:38;97072.56;;;4.81;74.74
86224;BME280;76887;48.558;12.170;2024-02-28T01:10:06;97085.66;;;4.80;74.35
86224;BME280;76887;48.558;12.170;2024-02-28T01:12:33;97084.84;;;4.79;74.35
86224;BME280;76887;48.558;12.170;2024-02-28T01:15:01;97085.00;;;4.76;74.28
86224;BME280;76887;48.558;12.170;2024-02-28T01:17:27;97083.28;;;4.75;73.68
86224;BME280;76887;48.558;12.170;2024-02-28T01:19:54;97094.72;;;4.73;74.66
86224;BME280;76887;48.558;12.170;2024-02-28T01:22:20;97098.34;;;4.70;73.81
86224;BME280;76887;48.558;12.170;2024-02-28T01:24:46;97110.44;;;4.71;73.84
86224;BME280;76887;48.558;12.170;2024-02-28T01:27:13;97120.78;;;4.73;73.83
86224;BME280;76887;48.558;12.170;2024-02-28T01:29:40;97119.94;;;4.72;73.62
86224;BME280;76887;48.558;12.170;2024-02-28T01:32:06;97121.88;;;4.69;74.83
86224;BME280;76887;48.558;12.170;2024-02-28T01:34:33;97121.16;;;4.65;74.69
86224;BME280;76887;48.558;12.170;2024-02-28T01:36:59;97127.56;;;4.60;74.70
86224;BME280;76887;48.558;12.170;2024-02-28T01:39:26;97129.31;;;4.59;74.41
86224;BME280;76887;48.558;12.170;2024-02-28T01:41:55;97130.91;;;4.62;74.54
86224;BME280;76887;48.558;12.170;2024-02-28T01:44:23;97137.97;;;4.60;73.80
86224;BME280;76887;48.558;12.170;2024-02-28T01:46:50;97142.19;;;4.62;74.00
86224;BME280;76887;48.558;12.170;2024-02-28T01:49:17;97143.94;;;4.62;74.92
86224;BME280;76887;48.558;12.170;2024-02-28T01:51:44;97148.53;;;4.56;75.14
86224;BME280;76887;48.558;12.170;2024-02-28T01:54:14;97148.53;;;4.56;74.85
86224;BME280;76887;48.558;12.170;2024-02-28T01:56:41;97145.88;;;4.58;74.87
86224;BME280;76887;48.558;12.170;2024-02-28T01:59:10;97149.25;;;4.60;74.51
86224;BME280;76887;48.558;12.170;2024-02-28T02:01:37;97143.13;;;4.61;75.52
86224;BME280;76887;48.558;12.170;2024-02-28T02:04:03;97148.53;;;4.56;75.80
86224;BME280;76887;48.558;12.170;2024-02-28T02:06:31;97146.94;;;4.54;75.59
86224;BME280;76887;48.558;12.170;2024-02-28T02:08:58;97153.91;;;4.53;76.00
86224;BME280;76887;48.558;12.170;2024-02-28T02:11:25;97148.00;;;4.50;76.91
86224;BME280;76887;48.558;12.170;2024-02-28T02:13:53;97163.72;;;4.48;76.65
86224;BME280;76887;48.558;12.170;2024-02-28T02:16:20;97160.41;;;4.45;76.93
86224;BME280;76887;48.558;12.170;2024-02-28T02:21:57;97169.03;;;4.28;77.27
86224;BME280;76887;48.558;12.170;2024-02-28T02:24:24;97165.50;;;4.29;76.47
86224;BME280;76887;48.558;12.170;2024-02-28T02:26:57;97168.81;;;4.33;76.50
86224;BME280;76887;48.558;12.170;2024-02-28T02:29:23;97177.41;;;4.35;75.96
86224;BME280;76887;48.558;12.170;2024-02-28T02:31:50;97186.00;;;4.37;76.18
86224;BME280;76887;48.558;12.170;2024-02-28T02:34:16;97185.22;;;4.35;75.85
86224;BME280;76887;48.558;12.170;2024-02-28T02:36:43;97187.00;;;4.34;76.10
86224;BME280;76887;48.558;12.170;2024-02-28T02:39:09;97190.59;;;4.32;75.83
86224;BME280;76887;48.558;12.170;2024-02-28T02:41:36;97186.31;;;4.31;75.31
86224;BME280;76887;48.558;12.170;2024-02-28T02:44:03;97181.09;;;4.31;75.67
86224;BME280;76887;48.558;12.170;2024-02-28T02:46:29;97186.31;;;4.31;75.07
86224;BME280;76887;48.558;12.170;2024-02-28T02:48:55;97185.38;;;4.32;74.67
86224;BME280;76887;48.558;12.170;2024-02-28T02:51:22;97183.75;;;4.29;74.72
86224;BME280;76887;48.558;12.170;2024-02-28T02:53:49;97185.59;;;4.27;75.04
86224;BME280;76887;48.558;12.170;2024-02-28T02:56:15;97184.91;;;4.23;74.96
86224;BME280;76887;48.558;12.170;2024-02-28T02:58:42;97182.66;;;4.16;75.64
86224;BME280;76887;48.558;12.170;2024-02-28T03:01:08;97185.41;;;4.13;74.81
86224;BME280;76887;48.558;12.170;2024-02-28T03:03:35;97192.38;;;4.12;74.79
86224;BME280;76887;48.558;12.170;2024-02-28T03:06:04;97194.19;;;4.10;75.13
86224;BME280;76887;48.558;12.170;2024-02-28T03:08:34;97193.50;;;4.07;75.10
86224;BME280;76887;48.558;12.170;2024-02-28T03:11:00;97189.38;;;4.03;75.03
86224;BME280;76887;48.558;12.170;2024-02-28T03:13:27;97190.22;;;4.03;74.74
86224;BME280;76887;48.558;12.170;2024-02-28T03:15:54;97189.41;;;4.01;74.81
86224;BME280;76887;48.558;12.170;2024-02-28T03:18:21;97193.94;;;3.97;75.50
86224;BME280;76887;48.558;12.170;2024-02-28T03:20:48;97197.44;;;3.96;74.92
86224;BME280;76887;48.558;12.170;2024-02-28T03:23:14;97195.69;;;3.97;74.62
86224;BME280;76887;48.558;12.170;2024-02-28T03:25:41;97199.28;;;3.94;74.91
86224;BME280;76887;48.558;12.170;2024-02-28T03:28:07;97195.03;;;3.92;74.72
86224;BME280;76887;48.558;12.170;2024-02-28T03:30:34;97185.78;;;3.86;73.72
86224;BME280;76887;48.558;12.170;2024-02-28T03:33:01;97195.47;;;3.83;74.17
86224;BME280;76887;48.558;12.170;2024-02-28T03:35:27;97191.25;;;3.80;73.85
86224;BME280;76887;48.558;12.170;2024-02-28T03:37:54;97193.94;;;3.79;73.79
86224;BME280;76887;48.558;12.170;2024-02-28T03:40:20;97205.34;;;3.76;74.84
86224;BME280;76887;48.558;12.170;2024-02-28T03:42:47;97199.41;;;3.72;74.12
86224;BME280;76887;48.558;12.170;2024-02-28T03:45:13;97192.50;;;3.71;74.59
86224;BME280;76887;48.558;12.170;2024-02-28T03:47:40;97195.34;;;3.67;75.24
86224;BME280;76887;48.558;12.170;2024-02-28T03:50:07;97194.69;;;3.62;75.55
86224;BME280;76887;48.558;12.170;2024-02-28T03:52:33;97200.81;;;3.61;75.28
86224;BME280;76887;48.558;12.170;2024-02-28T03:55:03;97199.81;;;3.63;74.96
86224;BME280;76887;48.558;12.170;2024-02-28T03:57:29;97204.25;;;3.61;74.69
86224;BME280;76887;48.558;12.170;2024-02-28T03:59:56;97216.34;;;3.62;75.52
86224;BME280;76887;48.558;12.170;2024-02-28T04:02:22;97224.16;;;3.62;74.65
86224;BME280;76887;48.558;12.170;2024-02-28T04:04:49;97229.22;;;3.65;75.93
86224;BME280;76887;48.558;12.170;2024-02-28T04:07:16;97240.53;;;3.64;75.63
86224;BME280;76887;48.558;12.170;2024-02-28T04:09:42;97243.94;;;3.66;75.48
86224;BME280;76887;48.558;12.170;2024-02-28T04:12:09;97241.19;;;3.69;75.30
86224;BME280;76887;48.558;12.170;2024-02-28T04:14:37;97241.03;;;3.72;75.65
86224;BME280;76887;48.558;12.170;2024-02-28T04:17:04;97253.28;;;3.70;75.68
86224;BME280;76887;48.558;12.170;2024-02-28T04:19:34;97256.03;;;3.67;76.78
86224;BME280;76887;48.558;12.170;2024-02-28T04:22:05;97264.47;;;3.72;75.97
86224;BME280;76887;48.558;12.170;2024-02-28T04:24:32;97273.00;;;3.76;75.64
86224;BME280;76887;48.558;12.170;2024-02-28T04:26:59;97263.28;;;3.80;75.98
86224;BME280;76887;48.558;12.170;2024-02-28T04:29:26;97257.09;;;3.82;76.10
86224;BME280;76887;48.558;12.170;2024-02-28T04:31:52;97259.59;;;3.85;76.21
86224;BME280;76887;48.558;12.170;2024-02-28T04:34:19;97260.44;;;3.86;76.49
86224;BME280;76887;48.558;12.170;2024-02-28T04:36:45;97262.97;;;3.87;76.45
86224;BME280;76887;48.558;12.170;2024-02-28T04:41:31;97275.00;;;3.90;76.72
86224;BME280;76887;48.558;12.170;2024-02-28T04:43:57;97271.47;;;3.91;76.65
86224;BME280;76887;48.558;12.170;2024-02-28T04:46:24;97273.94;;;3.94;76.98
86224;BME280;76887;48.558;12.170;2024-02-28T04:48:50;97277.31;;;3.96;76.94
86224;BME280;76887;48.558;12.170;2024-02-28T04:51:17;97279.78;;;3.99;77.10
86224;BME280;76887;48.558;12.170;2024-02-28T04:53:44;97277.94;;;4.01;76.51
86224;BME280;76887;48.558;12.170;2024-02-28T04:56:10;97284.81;;;4.04;76.37
86224;BME280;76887;48.558;12.170;2024-02-28T04:58:38;97293.31;;;4.07;76.37
86224;BME280;76887;48.558;12.170;2024-02-28T05:01:04;97295.00;;;4.08;77.01
86224;BME280;76887;48.558;12.170;2024-02-28T05:03:31;97300.97;;;4.10;76.63
86224;BME280;76887;48.558;12.170;2024-02-28T05:05:57;97302.53;;;4.14;76.30
86224;BME280;76887;48.558;12.170;2024-02-28T05:08:24;97306.84;;;4.15;76.56
86224;BME280;76887;48.558;12.170;2024-02-28T05:10:51;97311.06;;;4.18;76.74
86224;BME280;76887;48.558;12.170;2024-02-28T05:13:18;97310.13;;;4.19;77.42
86224;BME280;76887;48.558;12.170;2024-02-28T05:15:45;97310.06;;;4.20;77.67
86224;BME280;76887;48.558;12.170;2024-02-28T05:18:11;97310.00;;;4.22;77.47
86224;BME280;76887;48.558;12.170;2024-02-28T05:20:38;97317.00;;;4.21;77.23
86224;BME280;76887;48.558;12.170;2024-02-28T05:23:04;97328.19;;;4.23;77.42
86224;BME280;76887;48.558;12.170;2024-02-28T05:25:31;97320.28;;;4.25;77.13
86224;BME280;76887;48.558;12.170;2024-02-28T05:27:57;97325.41;;;4.26;77.29
86224;BME280;76887;48.558;12.170;2024-02-28T05:30:24;97320.13;;;4.28;77.84
86224;BME280;76887;48.558;12.170;2024-02-28T05:32:51;97329.59;;;4.31;77.44
86224;BME280;76887;48.558;12.170;2024-02-28T05:35:17;97337.25;;;4.34;77.26
86224;BME280;76887;48.558;12.170;2024-02-28T05:37:44;97339.78;;;4.35;77.02
86224;BME280;76887;48.558;12.170;2024-02-28T05:40:13;97345.84;;;4.36;77.54
86224;BME280;76887;48.558;12.170;2024-02-28T05:42:39;97349.22;;;4.38;77.84
86224;BME280;76887;48.558;12.170;2024-02-28T05:45:06;97346.56;;;4.39;77.56
86224;BME280;76887;48.558;12.170;2024-02-28T05:47:33;97350.03;;;4.40;78.10
86224;BME280;76887;48.558;12.170;2024-02-28T05:50:00;97363.81;;;4.42;77.68
86224;BME280;76887;48.558;12.170;2024-02-28T05:52:26;97357.63;;;4.44;77.36
86224;BME280;76887;48.558;12.170;2024-02-28T05:54:53;97361.16;;;4.43;77.60
86224;BME280;76887;48.558;12.170;2024-02-28T05:57:20;97366.34;;;4.43;78.11
86224;BME280;76887;48.558;12.170;2024-02-28T05:59:46;97368.97;;;4.43;78.07
86224;BME280;76887;48.558;12.170;2024-02-28T06:02:13;97368.97;;;4.43;78.68
86224;BME280;76887;48.558;12.170;2024-02-28T06:04:39;97373.25;;;4.44;78.46
86224;BME280;76887;48.558;12.170;2024-02-28T06:07:06;97380.06;;;4.47;77.80
86224;BME280;76887;48.558;12.170;2024-02-28T06:09:32;97379.13;;;4.49;78.42
86224;BME280;76887;48.558;12.170;2024-02-28T06:11:59;97379.16;;;4.48;78.15
86224;BME280;76887;48.558;12.170;2024-02-28T06:14:28;97387.91;;;4.47;78.04
86224;BME280;76887;48.558;12.170;2024-02-28T06:16:54;97390.47;;;4.48;78.82
86224;BME280;76887;48.558;12.170;2024-02-28T06:19:21;97397.34;;;4.49;78.41
86224;BME280;76887;48.558;12.170;2024-02-28T06:21:47;97398.91;;;4.53;78.38
86224;BME280;76887;48.558;12.170;2024-02-28T06:24:14;97406.56;;;4.56;77.83
86224;BME280;76887;48.558;12.170;2024-02-28T06:26:40;97409.13;;;4.58;78.10
86224;BME280;76887;48.558;12.170;2024-02-28T06:29:08;97405.59;;;4.59;77.63
86224;BME280;76887;48.558;12.170;2024-02-28T06:31:35;97424.63;;;4.61;77.88
86224;BME280;76887;48.558;12.170;2024-02-28T06:34:02;97414.13;;;4.63;77.94
86224;BME280;76887;48.558;12.170;2024-02-28T06:36:30;97421.88;;;4.64;77.87
86224;BME280;76887;48.558;12.170;2024-02-28T06:38:58;97423.63;;;4.64;77.64
86224;BME280;76887;48.558;12.170;2024-02-28T06:41:24;97427.84;;;4.66;77.58
86224;BME280;76887;48.558;12.170;2024-02-28T06:43:51;97423.44;;;4.68;77.92
86224;BME280;76887;48.558;12.170;2024-02-28T06:46:17;97433.78;;;4.70;77.51
86224;BME280;76887;48.558;12.170;2024-02-28T06:48:44;97428.50;;;4.71;77.58
86224;BME280;76887;48.558;12.170;2024-02-28T06:51:10;97441.53;;;4.71;77.81
86224;BME280;76887;48.558;12.170;2024-02-28T06:53:40;97431.13;;;4.71;78.50
86224;BME280;76887;48.558;12.170;2024-02-28T06:56:07;97443.22;;;4.72;78.54
86224;BME280;76887;48.558;12.170;2024-02-28T06:58:33;97449.22;;;4.74;77.99
86224;BME280;76887;48.558;12.170;2024-02-28T07:01:00;97455.22;;;4.76;78.03
86224;BME280;76887;48.558;12.170;2024-02-28T07:03:28;97458.59;;;4.78;77.85
86224;BME280;76887;48.558;12.170;2024-02-28T07:05:54;97454.25;;;4.79;77.72
86224;BME280;76887;48.558;12.170;2024-02-28T07:08:21;97456.78;;;4.80;78.22
86224;BME280;76887;48.558;12.170;2024-02-28T07:10:48;97466.22;;;4.83;78.01
86224;BME280;76887;48.558;12.170;2024-02-28T07:13:20;97466.22;;;4.83;77.47
86224;BME280;76887;48.558;12.170;2024-02-28T07:15:47;97461.72;;;4.87;78.02
86224;BME280;76887;48.558;12.170;2024-02-28T07:18:15;97464.19;;;4.90;77.00
86224;BME280;76887;48.558;12.170;2024-02-28T07:20:41;97468.31;;;4.94;76.45
86224;BME280;76887;48.558;12.170;2024-02-28T07:23:08;97461.31;;;4.96;77.25
86224;BME280;76887;48.558;12.170;2024-02-28T07:25:35;97462.00;;;4.99;76.92
86224;BME280;76887;48.558;12.170;2024-02-28T07:28:01;97464.69;;;4.98;77.01
86224;BME280;76887;48.558;12.170;2024-02-28T07:30:28;97465.53;;;4.98;76.77
86224;BME280;76887;48.558;12.170;2024-02-28T07:32:55;97467.13;;;5.01;76.83
86224;BME280;76887;48.558;12.170;2024-02-28T07:35:22;97475.19;;;4.96;77.36
86224;BME280;76887;48.558;12.170;2024-02-28T07:37:50;97462.06;;;4.98;77.25
86224;BME280;76887;48.558;12.170;2024-02-28T07:40:17;97467.97;;;5.01;77.14
86224;BME280;76887;48.558;12.170;2024-02-28T07:42:43;97467.91;;;5.03;77.13
86224;BME280;76887;48.558;12.170;2024-02-28T07:45:10;97469.63;;;5.04;77.21
86224;BME280;76887;48.558;12.170;2024-02-28T07:47:36;97469.75;;;5.01;76.97
86224;BME280;76887;48.558;12.170;2024-02-28T07:50:03;97473.19;;;5.01;76.97
86224;BME280;76887;48.558;12.170;2024-02-28T07:52:30;97469.75;;;5.01;77.05
86224;BME280;76887;48.558;12.170;2024-02-28T07:54:56;97468.69;;;5.05;77.39
86224;BME280;76887;48.558;12.170;2024-02-28T07:57:23;97469.63;;;5.04;76.94
86224;BME280;76887;48.558;12.170;2024-02-28T07:59:50;97472.50;;;4.98;77.08
86224;BME280;76887;48.558;12.170;2024-02-28T08:02:17;97481.16;;;4.98;77.20
86224;BME280;76887;48.558;12.170;2024-02-28T08:04:46;97479.56;;;4.96;77.31
86224;BME280;76887;48.558;12.170;2024-02-28T08:07:13;97477.72;;;4.98;77.36
86224;BME280;76887;48.558;12.170;2024-02-28T08:09:39;97480.19;;;5.01;77.53
86224;BME280;76887;48.558;12.170;2024-02-28T08:12:06;97473.19;;;5.01;77.00
86224;BME280;76887;48.558;12.170;2024-02-28T08:16:59;97486.97;;;5.05;77.23
86224;BME280;76887;48.558;12.170;2024-02-28T08:19:26;97483.28;;;5.09;77.06
86224;BME280;76887;48.558;12.170;2024-02-28T08:21:52;97490.25;;;5.08;77.18
86224;BME280;76887;48.558;12.170;2024-02-28T08:24:19;97495.28;;;5.13;76.89
86224;BME280;76887;48.558;12.170;2024-02-28T08:26:45;97498.66;;;5.15;77.17
86224;BME280;76887;48.558;12.170;2024-02-28T08:29:12;97489.06;;;5.16;77.07
86224;BME280;76887;48.558;12.170;2024-02-28T08:31:40;97487.22;;;5.18;76.78
86224;BME280;76887;48.558;12.170;2024-02-28T08:34:07;97497.59;;;5.19;77.05
86224;BME280;76887;48.558;12.170;2024-02-28T08:36:35;97499.25;;;5.22;76.65
86224;BME280;76887;48.558;12.170;2024-02-28T08:39:01;97504.38;;;5.23;76.65
86224;BME280;76887;48.558;12.170;2024-02-28T08:41:33;97500.78;;;5.26;77.14
86224;BME280;76887;48.558;12.170;2024-02-28T08:44:00;97500.78;;;5.26;77.20
86224;BME280;76887;48.558;12.170;2024-02-28T08:46:26;97501.78;;;5.23;77.17
86224;BME280;76887;48.558;12.170;2024-02-28T08:48:53;97501.97;;;5.19;76.81
86224;BME280;76887;48.558;12.170;2024-02-28T08:51:19;97503.03;;;5.14;77.29
86224;BME280;76887;48.558;12.170;2024-02-28T08:53:46;97522.91;;;5.17;77.24
86224;BME280;76887;48.558;12.170;2024-02-28T08:56:12;97516.69;;;5.20;76.73
86224;BME280;76887;48.558;12.170;2024-02-28T08:58:39;97513.31;;;5.18;76.75
86224;BME280;76887;48.558;12.170;2024-02-28T09:01:06;97524.69;;;5.17;76.90
86224;BME280;76887;48.558;12.170;2024-02-28T09:03:32;97520.38;;;5.16;76.65
86224;BME280;76887;48.558;12.170;2024-02-28T09:05:59;97528.84;;;5.21;77.21
86224;BME280;76887;48.558;12.170;2024-02-28T09:08:25;97522.50;;;5.26;77.21
86224;BME280;76887;48.558;12.170;2024-02-28T09:10:52;97537.88;;;5.32;77.05
86224;BME280;76887;48.558;12.170;2024-02-28T09:13:19;97532.34;;;5.38;76.54
86224;BME280;76887;48.558;12.170;2024-02-28T09:15:46;97535.47;;;5.47;76.21
86224;BME280;76887;48.558;12.170;2024-02-28T09:18:13;97537.78;;;5.53;76.17
86224;BME280;76887;48.558;12.170;2024-02-28T09:20:39;97545.28;;;5.60;76.13
86224;BME280;76887;48.558;12.170;2024-02-28T09:23:06;97540.81;;;5.62;75.73
86224;BME280;76887;48.558;12.170;2024-02-28T09:25:33;97537.44;;;5.60;75.76
86224;BME280;76887;48.558;12.170;2024-02-28T09:28:02;97544.91;;;5.68;75.46
86224;BME280;76887;48.558;12.170;2024-02-28T09:30:29;97542.22;;;5.69;75.75
86224;BME280;76887;48.558;12.170;2024-02-28T09:33:08;97545.59;;;5.71;75.16
86224;BME280;76887;48.558;12.170;2024-02-28T09:35:35;97552.53;;;5.72;75.10
86224;BME280;76887;48.558;12.170;2024-02-28T09:38:03;97554.53;;;5.67;75.65
86224;BME280;76887;48.558;12.170;2024-02-28T09:40:30;97551.84;;;5.69;75.13
86224;BME280;76887;48.558;12.170;2024-02-28T09:43:03;97556.50;;;5.62;75.63
86224;BME280;76887;48.558;12.170;2024-02-28T09:45:30;97553.59;;;5.68;75.84
86224;BME280;76887;48.558;12.170;2024-02-28T09:47:59;97560.50;;;5.69;75.25
86224;BME280;76887;48.558;12.170;2024-02-28T09:50:27;97567.63;;;5.66;75.49
86224;BME280;76887;48.558;12.170;2024-02-28T09:52:53;97569.47;;;5.64;75.46
86224;BME280;76887;48.558;12.170;2024-02-28T09:55:35;97566.94;;;5.62;75.95
86224;BME280;76887;48.558;12.170;2024-02-28T09:58:02;97574.69;;;5.64;75.57
86224;BME280;76887;48.558;12.170;2024-02-28T10:00:30;97577.31;;;5.64;75.96
86224;BME280;76887;48.558;12.170;2024-02-28T10:02:58;97573.16;;;5.60;75.43
86224;BME280;76887;48.558;12.170;2024-02-28T10:05:25;97586.28;;;5.58;75.80
86224;BME280;76887;48.558;12.170;2024-02-28T10:07:55;97581.19;;;5.55;75.58
86224;BME280;76887;48.558;12.170;2024-02-28T10:10:22;97589.16;;;5.52;75.59
86224;BME280;76887;48.558;12.170;2024-02-28T10:12:48;97590.22;;;5.48;75.98
86224;BME280;76887;48.558;12.170;2024-02-28T10:15:15;97586.72;;;5.49;75.93
86224;BME280;76887;48.558;12.170;2024-02-28T10:17:42;97582.34;;;5.50;75.98
86224;BME280;76887;48.558;12.170;2024-02-28T10:20:10;97587.47;;;5.51;75.86
86224;BME280;76887;48.558;12.170;2024-02-28T10:22:37;97589.09;;;5.54;75.73
86224;BME280;76887;48.558;12.170;2024-02-28T10:25:04;97590.69;;;5.56;75.95
86224;BME280;76887;48.558;12.170;2024-02-28T10:27:34;97604.56;;;5.58;75.91
86224;BME280;76887;48.558;12.170;2024-02-28T10:30:02;97599.59;;;5.52;75.39
86224;BME280;76887;48.558;12.170;2024-02-28T10:32:32;97602.22;;;5.52;75.77
86224;BME280;76887;48.558;12.170;2024-02-28T10:35:03;97599.53;;;5.54;75.89
86224;BME280;76887;48.558;12.170;2024-02-28T10:37:30;97601.53;;;5.49;75.18
86224;BME280;76887;48.558;12.170;2024-02-28T10:39:58;97594.59;;;5.48;75.22
86224;BME280;76887;48.558;12.170;2024-02-28T10:42:30;97593.69;;;5.49;74.94
86224;BME280;76887;48.558;12.170;2024-02-28T10:44:57;97600.72;;;5.47;75.48
86224;BME280;76887;48.558;12.170;2024-02-28T10:47:45;97599.88;;;5.46;75.00
86224;BME280;76887;48.558;12.170;2024-02-28T10:50:12;97608.56;;;5.47;75.51
86224;BME280;76887;48.558;12.170;2024-02-28T10:52:43;97608.38;;;5.51;75.21
86224;BME280;76887;48.558;12.170;2024-02-28T10:55:10;97608.38;;;5.51;75.39
86224;BME280;76887;48.558;12.170;2024-02-28T10:57:38;97612.81;;;5.49;74.85
86224;BME280;76887;48.558;12.170;2024-02-28T11:00:05;97607.63;;;5.48;74.99
86224;BME280;76887;48.558;12.170;2024-02-28T11:02:32;97614.63;;;5.47;74.66
86224;BME280;76887;48.558;12.170;2024-02-28T11:05:00;97606.88;;;5.46;75.18
86224;BME280;76887;48.558;12.170;2024-02-28T11:07:30;97619.91;;;5.46;74.60
86224;BME280;76887;48.558;12.170;2024-02-28T11:09:57;97618.06;;;5.48;74.97
86224;BME280;76887;48.558;12.170;2024-02-28T11:12:28;97612.94;;;5.46;74.93
86224;BME280;76887;48.558;12.170;2024-02-28T11:14:59;97616.31;;;5.48;75.20
86224;BME280;76887;48.558;12.170;2024-02-28T11:17:26;97620.84;;;5.45;75.11
86224;BME280;76887;48.558;12.170;2024-02-28T11:19:55;97618.22;;;5.45;75.47
86224;BME280;76887;48.558;12.170;2024-02-28T11:22:21;97624.16;;;5.48;75.68
86224;BME280;76887;48.558;12.170;2024-02-28T11:24:48;97623.09;;;5.52;75.39
86224;BME280;76887;48.558;12.170;2024-02-28T11:27:17;97622.03;;;5.56;75.09
86224;BME280;76887;48.558;12.170;2024-02-28T11:29:44;97628.91;;;5.59;75.10
86224;BME280;76887;48.558;12.170;2024-02-28T11:32:13;97620.16;;;5.60;75.31
86224;BME280;76887;48.558;12.170;2024-02-28T11:34:41;97622.59;;;5.63;74.75
86224;BME280;76887;48.558;12.170;2024-02-28T11:37:11;97620.91;;;5.62;74.68
86224;BME280;76887;48.558;12.170;2024-02-28T11:39:37;97625.91;;;5.66;74.85
86224;BME280;76887;48.558;12.170;2024-02-28T11:42:14;97631.09;;;5.68;74.85
86224;BME280;76887;48.558;12.170;2024-02-28T11:44:42;97627.69;;;5.66;74.96
86224;BME280;76887;48.558;12.170;2024-02-28T11:47:09;97631.09;;;5.68;74.73
86224;BME280;76887;48.558;12.170;2024-02-28T11:49:39;97638.84;;;5.69;75.02
86224;BME280;76887;48.558;12.170;2024-02-28T11:52:05;97639.63;;;5.71;75.08
86224;BME280;76887;48.558;12.170;2024-02-28T11:54:33;97636.09;;;5.72;74.75
86224;BME280;76887;48.558;12.170;2024-02-28T11:56:59;97639.69;;;5.70;74.47
86224;BME280;76887;48.558;12.170;2024-02-28T11:59:26;97636.31;;;5.68;74.56
86224;BME280;76887;48.558;12.170;2024-02-28T12:01:52;97623.25;;;5.68;74.99
86224;BME280;76887;48.558;12.170;2024-02-28T12:04:19;97628.59;;;5.65;74.70
86224;BME280;76887;48.558;12.170;2024-02-28T12:06:45;97632.91;;;5.66;74.59
86224;BME280;76887;48.558;12.170;2024-02-28T12:09:13;97629.53;;;5.64;74.33
86224;BME280;76887;48.558;12.170;2024-02-28T12:11:53;97632.97;;;5.64;74.32
86224;BME280;76887;48.558;12.170;2024-02-28T12:14:19;97631.28;;;5.63;74.31
86224;BME280;76887;48.558;12.170;2024-02-28T12:16:47;97628.75;;;5.62;74.36
86224;BME280;76887;48.558;12.170;2024-02-28T12:19:14;97625.38;;;5.60;74.22
86224;BME280;76887;48.558;12.170;2024-02-28T12:21:42;97625.44;;;5.58;74.26
86224;BME280;76887;48.558;12.170;2024-02-28T12:24:10;97625.44;;;5.58;74.19
86224;BME280;76887;48.558;12.170;2024-02-28T12:26:38;97632.28;;;5.61;74.72
86224;BME280;76887;48.558;12.170;2024-02-28T12:29:05;97623.53;;;5.62;74.52
86224;BME280;76887;48.558;12.170;2024-02-28T12:31:31;97626.84;;;5.65;74.55
86224;BME280;76887;48.558;12.170;2024-02-28T12:33:58;97630.25;;;5.67;74.49
86224;BME280;76887;48.558;12.170;2024-02-28T12:36:25;97628.47;;;5.68;73.74
86224;BME280;76887;48.558;12.170;2024-02-28T12:38:53;97632.72;;;5.70;73.86
86224;BME280;76887;48.558;12.170;2024-02-28T12:41:19;97632.56;;;5.74;74.19
86224;BME280;76887;48.558;12.170;2024-02-28T12:43:46;97630.72;;;5.76;73.95
86224;BME280;76887;48.558;12.170;2024-02-28T12:46:12;97630.69;;;5.77;73.87
86224;BME280;76887;48.558;12.170;2024-02-28T12:48:40;97634.06;;;5.79;73.40
86224;BME280;76887;48.558;12.170;2024-02-28T12:51:20;97627.91;;;5.80;73.84
86224;BME280;76887;48.558;12.170;2024-02-28T12:53:47;97645.28;;;5.81;73.83
86224;BME280;76887;48.558;12.170;2024-02-28T12:56:17;97633.97;;;5.81;73.59
86224;BME280;76887;48.558;12.170;2024-02-28T12:58:44;97631.38;;;5.81;73.70
86224;BME280;76887;48.558;12.170;2024-02-28T13:01:11;97627.84;;;5.82;73.47
86224;BME280;76887;48.558;12.170;2024-02-28T13:03:38;97630.44;;;5.82;74.05
86224;BME280;76887;48.558;12.170;2024-02-28T13:06:05;97628.69;;;5.82;74.02
86224;BME280;76887;48.558;12.170;2024-02-28T13:08:31;97627.75;;;5.83;74.18
86224;BME280;76887;48.558;12.170;2024-02-28T13:10:58;97626.84;;;5.84;73.83
86224;BME280;76887;48.558;12.170;2024-02-28T13:13:24;97619.84;;;5.85;74.00